map of PLX home
PLX - Airport
Location
City:  Semey, Shyghys Qazaqstan, Kazakhstan
Name:Semey Airport
Old (Alt.):Semipalatinsk Airport
ICAO:UASS
IATA:PLX

Details
Type:Airport (Aerodrome, Airfield)
Use:Public/Civil
Latitude:5021'05"N (50.351389)
Longitude:8014'04"E (80.234444)
Elevation:761 ft (232 m)
Variation:7.29E (WMM2015v2 magnetic declination)
-0.00 annual change
Runways:1
Longest:10157 × 148 ft (3096 × 45 m), paved

Time
Time Zone:UTC+6 (DST+7)

Weather
METAR:UASS 041200Z 28005MPS 8000 NSC M23/M26 Q1031 R26/451037 NOSIG RMK QFE754/1006

Related Locations
Nearby:
Farthest:PNT: 11253 mi / 18111 km
Puerto Natales [Teniente Julio Gallardo], MA, CL

Find:

   beyond  
but within

Other Information
Maps:
NOTAMs:
Links:
Sources:

  
  • flag of Kazakhstan
  

Sectional Chart

Flight Planning
at skyvector.com

Satellite Image

Google Maps Satellite view

 

Copyright © 2004-2019 Karl L. Swartz. All rights reserved.
The Great Circle Mapper name and logo are trademarks of the Great Circle Mapper.
All other trademarks mentioned herein belong to their respective owners.
Please see credits for attibutions and further copyright information.

  Follow gcmap on Facebook Follow gcmap on Twitter GCmap on LinkedIn

hCard Microformat

Geo Microformat